createdAt,value
2017-01-19T00:00:14.170Z,75.87
2017-01-19T00:01:14.582Z,75.96
2017-01-19T00:02:14.566Z,76.06
2017-01-19T00:03:14.565Z,75.96
2017-01-19T00:04:14.570Z,75.96
2017-01-19T00:05:14.149Z,76.15
2017-01-19T00:06:14.550Z,75.96
2017-01-19T00:07:14.133Z,75.96
2017-01-19T00:08:14.545Z,76.06
2017-01-19T00:09:14.121Z,76.34
2017-01-19T00:10:14.533Z,76.34
2017-01-19T00:11:14.528Z,76.15
2017-01-19T00:12:14.108Z,76.43
2017-01-19T00:13:14.512Z,76.43
2017-01-19T00:14:14.509Z,76.53
2017-01-19T00:15:14.508Z,76.62
2017-01-19T00:16:14.504Z,76.72
2017-01-19T00:17:14.496Z,76.53
2017-01-19T00:18:14.496Z,76.72
2017-01-19T00:19:14.489Z,76.81
2017-01-19T00:20:14.484Z,76.81
2017-01-19T00:21:14.473Z,76.72
2017-01-19T00:22:14.064Z,76.72
2017-01-19T00:23:14.471Z,76.72
2017-01-19T00:24:14.051Z,76.34
2017-01-19T00:25:14.460Z,76.62
2017-01-19T00:26:14.455Z,76.43
2017-01-19T00:27:14.039Z,76.72
2017-01-19T00:28:14.443Z,76.43
2017-01-19T00:29:14.027Z,76.72
2017-01-19T00:30:14.435Z,76.81
2017-01-19T00:31:14.427Z,77
2017-01-19T00:32:14.007Z,76.81
2017-01-19T00:33:14.423Z,77
2017-01-19T00:34:14.003Z,77.28
2017-01-19T00:35:14.659Z,76.62
2017-01-19T00:36:14.399Z,76.9
2017-01-19T00:37:13.986Z,76.53
2017-01-19T00:38:14.398Z,76.81
2017-01-19T00:39:13.982Z,76.53
2017-01-19T00:40:14.534Z,76.62
2017-01-19T00:41:14.382Z,77
2017-01-19T00:42:13.966Z,76.62
2017-01-19T00:43:14.366Z,76.62
2017-01-19T00:44:14.362Z,76.62
2017-01-19T00:45:14.350Z,76.81
2017-01-19T00:46:14.358Z,76.62
2017-01-19T00:47:13.934Z,77.37
2017-01-19T00:48:14.343Z,76.72
2017-01-19T00:49:13.930Z,77.37
2017-01-19T00:50:13.926Z,76.43
2017-01-19T00:51:14.330Z,76.9
2017-01-19T00:52:14.329Z,76.81
2017-01-19T00:53:14.314Z,76.34
2017-01-19T00:54:14.310Z,76.43
2017-01-19T00:55:13.902Z,76.81
2017-01-19T00:56:14.306Z,76.62
2017-01-19T00:57:13.894Z,76.9
2017-01-19T00:58:13.889Z,76.81
2017-01-19T00:59:14.289Z,77
2017-01-19T01:00:13.874Z,76.81
2017-01-19T01:01:14.285Z,76.81
2017-01-19T01:02:14.302Z,77
2017-01-19T01:03:14.269Z,77
2017-01-19T01:04:14.270Z,76.72
2017-01-19T01:05:13.853Z,77
2017-01-19T01:06:14.253Z,77.09
2017-01-19T01:07:13.845Z,76.62
2017-01-19T01:08:13.834Z,76.62
2017-01-19T01:09:14.241Z,76.53
2017-01-19T01:10:13.825Z,76.72
2017-01-19T01:11:14.225Z,76.81
2017-01-19T01:12:14.231Z,76.81
2017-01-19T01:13:14.213Z,76.62
2017-01-19T01:14:14.213Z,77
2017-01-19T01:15:13.805Z,76.53
2017-01-19T01:16:14.205Z,76.81
2017-01-19T01:17:14.197Z,77.37
2017-01-19T01:18:14.196Z,77.37
2017-01-19T01:19:14.188Z,77.37
2017-01-19T01:20:13.773Z,77.15
2017-01-19T01:21:14.185Z,77.28
2017-01-19T01:22:14.176Z,77.25
2017-01-19T01:23:14.169Z,77
2017-01-19T01:24:14.169Z,77.06
2017-01-19T01:25:13.748Z,77.15
2017-01-19T01:26:14.149Z,77.15
2017-01-19T01:27:14.156Z,77.09
2017-01-19T01:28:14.148Z,77.06
2017-01-19T01:29:14.156Z,76.81
2017-01-19T01:30:13.728Z,77.25
2017-01-19T01:31:14.128Z,77.44
2017-01-19T01:32:14.124Z,77.47
2017-01-19T01:33:14.124Z,77.44
2017-01-19T01:34:14.124Z,77.15
2017-01-19T01:35:13.704Z,77.94
2017-01-19T01:36:14.112Z,77.81
2017-01-19T01:37:14.104Z,77.62
2017-01-19T01:38:14.096Z,78
2017-01-19T01:39:14.095Z,77.91
2017-01-19T01:40:13.676Z,77.91
2017-01-19T01:41:14.080Z,78.38
2017-01-19T01:42:13.676Z,78.28
2017-01-19T01:43:14.076Z,78.19
2017-01-19T01:44:14.073Z,78.28
2017-01-19T01:45:13.649Z,78.09
2017-01-19T01:46:14.066Z,78.09
2017-01-19T01:47:14.057Z,78
2017-01-19T01:48:14.054Z,78
2017-01-19T01:49:14.050Z,78.28
2017-01-19T01:50:14.047Z,78.19
2017-01-19T01:51:14.043Z,78.19
2017-01-19T01:52:14.035Z,78.38
2017-01-19T01:53:13.619Z,77.91
2017-01-19T01:54:14.028Z,78.47
2017-01-19T01:55:14.024Z,78.19
2017-01-19T01:56:13.604Z,78.09
2017-01-19T01:57:14.013Z,78
2017-01-19T01:58:14.005Z,78.56
2017-01-19T01:59:14.001Z,78.47
2017-01-19T02:00:13.994Z,78.38
2017-01-19T02:01:13.586Z,78.56
2017-01-19T02:02:13.986Z,78.38
2017-01-19T02:03:13.986Z,78.75
2017-01-19T02:04:13.567Z,78.56
2017-01-19T02:05:13.979Z,78.94
2017-01-19T02:06:13.561Z,79.13
2017-01-19T02:07:13.547Z,79.22
2017-01-19T02:08:13.963Z,79.32
2017-01-19T02:09:13.544Z,79.13
2017-01-19T02:10:13.952Z,79.22
2017-01-19T02:11:13.948Z,79.32
2017-01-19T02:12:13.532Z,79.03
2017-01-19T02:13:13.937Z,79.03
2017-01-19T02:14:13.929Z,79.13
2017-01-19T02:15:13.513Z,79.32
2017-01-19T02:16:13.925Z,79.69
2017-01-19T02:17:13.914Z,79.5
2017-01-19T02:18:13.506Z,79.5
2017-01-19T02:19:13.906Z,79.41
2017-01-19T02:20:13.903Z,79.32
2017-01-19T02:21:14.051Z,79.98
2017-01-19T02:22:13.899Z,79.79
2017-01-19T02:23:13.888Z,80.17
2017-01-19T02:24:13.888Z,79.98
2017-01-19T02:25:13.877Z,80.07
2017-01-19T02:26:13.881Z,79.98
2017-01-19T02:27:13.465Z,79.79
2017-01-19T02:28:13.870Z,79.69
2017-01-19T02:29:13.858Z,79.79
2017-01-19T02:30:13.446Z,80.17
2017-01-19T02:31:13.855Z,80.83
2017-01-19T02:32:13.847Z,80.45
2017-01-19T02:33:13.432Z,80.17
2017-01-19T02:34:13.840Z,80.45
2017-01-19T02:35:13.824Z,80.36
2017-01-19T02:36:13.417Z,80.64
2017-01-19T02:37:13.824Z,80.45
2017-01-19T02:38:13.825Z,80.92
2017-01-19T02:39:13.818Z,80.73
2017-01-19T02:40:13.809Z,80.92
2017-01-19T02:41:13.810Z,80.83
2017-01-19T02:42:13.390Z,81.02
2017-01-19T02:43:13.803Z,80.92
2017-01-19T02:44:13.791Z,81.02
2017-01-19T02:45:13.787Z,80.73
2017-01-19T02:46:13.784Z,81.02
2017-01-19T02:47:13.368Z,81.02
2017-01-19T02:48:13.364Z,81.02
2017-01-19T02:49:13.768Z,81.02
2017-01-19T02:50:13.769Z,81.21
2017-01-19T02:51:13.765Z,80.92
2017-01-19T02:52:13.749Z,80.83
2017-01-19T02:53:13.749Z,81.02
2017-01-19T02:54:13.746Z,80.45
2017-01-19T02:55:13.330Z,80.83
2017-01-19T02:56:13.731Z,80.64
2017-01-19T02:57:13.731Z,80.36
2017-01-19T02:58:13.723Z,80.26
2017-01-19T02:59:13.311Z,80.26
2017-01-19T03:00:13.715Z,80.54
2017-01-19T03:01:13.308Z,80.73
2017-01-19T03:02:13.708Z,80.54
2017-01-19T03:03:13.295Z,80.45
2017-01-19T03:04:13.692Z,80.54
2017-01-19T03:05:13.685Z,81.02
2017-01-19T03:06:13.685Z,80.92
2017-01-19T03:07:13.693Z,81.02
2017-01-19T03:08:13.265Z,80.83
2017-01-19T03:09:13.677Z,81.3
2017-01-19T03:10:13.661Z,81.3
2017-01-19T03:11:13.658Z,81.02
2017-01-19T03:12:13.650Z,81.21
2017-01-19T03:13:13.651Z,80.83
2017-01-19T03:14:13.650Z,81.02
2017-01-19T03:15:13.234Z,80.83
2017-01-19T03:16:13.643Z,81.02
2017-01-19T03:17:13.227Z,81.02
2017-01-19T03:18:13.627Z,80.45
2017-01-19T03:19:13.212Z,80.45
2017-01-19T03:20:13.623Z,80.73
2017-01-19T03:21:13.612Z,80.45
2017-01-19T03:22:13.612Z,80.26
2017-01-19T03:23:13.608Z,80.73
2017-01-19T03:24:13.609Z,80.64
2017-01-19T03:25:13.597Z,80.45
2017-01-19T03:26:13.589Z,80.54
2017-01-19T03:27:13.177Z,80.26
2017-01-19T03:28:13.585Z,80.26
2017-01-19T03:29:13.581Z,80.45
2017-01-19T03:30:13.577Z,80.45
2017-01-19T03:31:13.162Z,80.54
2017-01-19T03:32:13.561Z,80.36
2017-01-19T03:33:13.558Z,80.73
2017-01-19T03:34:13.558Z,80.73
2017-01-19T03:35:13.142Z,80.64
2017-01-19T03:36:13.546Z,80.64
2017-01-19T03:37:13.542Z,80.64
2017-01-19T03:38:13.538Z,80.64
2017-01-19T03:39:13.114Z,80.64
2017-01-19T03:40:13.110Z,80.83
2017-01-19T03:41:13.515Z,80.92
2017-01-19T03:42:13.510Z,80.45
2017-01-19T03:43:13.098Z,80.07
2017-01-19T03:44:13.095Z,80.36
2017-01-19T03:45:13.495Z,79.69
2017-01-19T03:46:13.499Z,79.69
2017-01-19T03:47:13.487Z,79.79
2017-01-19T03:48:13.076Z,80.07
2017-01-19T03:49:13.480Z,79.98
2017-01-19T03:50:13.471Z,79.98
2017-01-19T03:51:13.723Z,79.88
2017-01-19T03:52:13.049Z,79.88
2017-01-19T03:53:13.044Z,79.6
2017-01-19T03:54:13.456Z,79.5
2017-01-19T03:55:13.448Z,79.98
2017-01-19T03:56:13.453Z,79.69
2017-01-19T03:57:13.024Z,80.17
2017-01-19T03:58:13.441Z,79.88
2017-01-19T03:59:13.432Z,79.69
2017-01-19T04:00:13.420Z,79.5
2017-01-19T04:01:13.008Z,80.26
2017-01-19T04:02:13.413Z,80.36
2017-01-19T04:03:13.409Z,80.26
2017-01-19T04:04:13.405Z,80.17
2017-01-19T04:05:12.993Z,80.36
2017-01-19T04:06:13.393Z,80.26
2017-01-19T04:07:13.397Z,80.26
2017-01-19T04:08:13.386Z,80.17
2017-01-19T04:09:12.969Z,80.07
2017-01-19T04:10:13.373Z,80.54
2017-01-19T04:11:12.974Z,80.36
2017-01-19T04:12:13.366Z,80.64
2017-01-19T04:13:12.950Z,80.17
2017-01-19T04:14:13.363Z,80.26
2017-01-19T04:15:13.351Z,80.36
2017-01-19T04:16:13.342Z,80.64
2017-01-19T04:17:12.930Z,80.73
2017-01-19T04:18:13.338Z,80.83
2017-01-19T04:19:13.336Z,80.83
2017-01-19T04:20:13.327Z,80.64
2017-01-19T04:21:13.323Z,80.45
2017-01-19T04:22:13.323Z,80.64
2017-01-19T04:23:13.307Z,80.64
2017-01-19T04:24:13.299Z,80.73
2017-01-19T04:25:13.304Z,80.64
2017-01-19T04:26:13.299Z,80.54
2017-01-19T04:27:13.287Z,80.64
2017-01-19T04:28:13.288Z,80.54
2017-01-19T04:29:13.288Z,80.54
2017-01-19T04:30:12.872Z,80.83
2017-01-19T04:31:13.273Z,80.83
2017-01-19T04:32:13.272Z,80.64
2017-01-19T04:33:12.856Z,80.64
2017-01-19T04:34:12.848Z,80.73
2017-01-19T04:35:13.252Z,80.17
2017-01-19T04:36:13.249Z,80.26
2017-01-19T04:37:12.829Z,80.07
2017-01-19T04:38:12.829Z,80.07
2017-01-19T04:39:13.229Z,80.07
2017-01-19T04:40:13.233Z,80.26
2017-01-19T04:41:13.226Z,80.26
2017-01-19T04:42:12.810Z,80.07
2017-01-19T04:43:13.218Z,80.17
2017-01-19T04:44:13.206Z,80.26
2017-01-19T04:45:12.794Z,80.17
2017-01-19T04:46:12.790Z,80.36
2017-01-19T04:47:13.194Z,79.69
2017-01-19T04:48:13.194Z,79.79
2017-01-19T04:49:12.771Z,79.88
2017-01-19T04:50:12.767Z,79.79
2017-01-19T04:51:13.179Z,79.79
2017-01-19T04:52:12.759Z,79.79
2017-01-19T04:53:13.167Z,79.69
2017-01-19T04:54:12.747Z,80.07
2017-01-19T04:55:13.155Z,79.88
2017-01-19T04:56:13.155Z,80.07
2017-01-19T04:57:13.146Z,79.69
2017-01-19T04:58:12.734Z,80.36
2017-01-19T04:59:13.134Z,80.07
2017-01-19T05:00:13.157Z,80.36
2017-01-19T05:01:13.121Z,80.36
2017-01-19T05:02:13.125Z,80.36
2017-01-19T05:03:13.112Z,80.36
2017-01-19T05:04:13.108Z,80.45
2017-01-19T05:05:13.104Z,79.69
2017-01-19T05:06:12.688Z,79.79
2017-01-19T05:07:13.091Z,79.79
2017-01-19T05:08:13.087Z,80.17
2017-01-19T05:09:13.087Z,80.07
2017-01-19T05:10:12.667Z,79.88
2017-01-19T05:11:13.067Z,80.07
2017-01-19T05:12:13.070Z,79.5
2017-01-19T05:13:13.066Z,79.98
2017-01-19T05:14:13.057Z,79.98
2017-01-19T05:15:12.641Z,79.69
2017-01-19T05:16:12.633Z,80.07
2017-01-19T05:17:13.045Z,79.98
2017-01-19T05:18:13.037Z,79.79
2017-01-19T05:19:12.617Z,79.98
2017-01-19T05:20:13.020Z,79.79
2017-01-19T05:21:13.020Z,79.98
2017-01-19T05:22:13.004Z,79.88
2017-01-19T05:23:13.007Z,79.98
2017-01-19T05:24:13.019Z,79.98
2017-01-19T05:25:12.991Z,79.79
2017-01-19T05:26:12.991Z,79.98
2017-01-19T05:27:12.578Z,79.5
2017-01-19T05:28:12.982Z,79.88
2017-01-19T05:29:12.970Z,80.07
2017-01-19T05:30:12.962Z,80.17
2017-01-19T05:31:12.966Z,79.69
2017-01-19T05:32:12.546Z,79.79
2017-01-19T05:33:12.958Z,79.88
2017-01-19T05:34:12.954Z,79.79
2017-01-19T05:35:12.946Z,79.69
2017-01-19T05:36:12.942Z,79.5
2017-01-19T05:37:12.938Z,79.6
2017-01-19T05:38:12.926Z,79.69
2017-01-19T05:39:12.515Z,79.69
2017-01-19T05:40:12.918Z,79.79
2017-01-19T05:41:12.910Z,80.36
2017-01-19T05:42:12.913Z,80.36
2017-01-19T05:43:12.897Z,79.69
2017-01-19T05:44:12.901Z,79.69
2017-01-19T05:45:12.897Z,79.98
2017-01-19T05:46:12.893Z,79.88
2017-01-19T05:47:12.498Z,80.07
2017-01-19T05:48:12.873Z,79.98
2017-01-19T05:49:12.874Z,79.98
2017-01-19T05:50:12.873Z,80.07
2017-01-19T05:51:12.457Z,79.79
2017-01-19T05:52:12.865Z,79.88
2017-01-19T05:53:12.853Z,79.88
2017-01-19T05:54:12.849Z,79.88
2017-01-19T05:55:12.846Z,80.07
2017-01-19T05:56:12.841Z,80.07
2017-01-19T05:57:12.425Z,80.07
2017-01-19T05:58:12.421Z,79.88
2017-01-19T05:59:12.829Z,79.98
2017-01-19T06:00:12.817Z,79.88
2017-01-19T06:01:12.405Z,80.07
2017-01-19T06:02:12.809Z,80.07
2017-01-19T06:03:12.809Z,80.07
2017-01-19T06:04:12.805Z,80.17
2017-01-19T06:05:12.797Z,80.07
2017-01-19T06:06:12.793Z,79.79
2017-01-19T06:07:12.785Z,80.07
2017-01-19T06:08:12.369Z,80.36
2017-01-19T06:09:12.777Z,80.36
2017-01-19T06:10:12.765Z,79.79
2017-01-19T06:11:12.766Z,80.07
2017-01-19T06:12:12.353Z,79.98
2017-01-19T06:13:12.762Z,80.07
2017-01-19T06:14:12.745Z,79.98
2017-01-19T06:15:12.337Z,80.07
2017-01-19T06:16:12.749Z,79.98
2017-01-19T06:17:12.741Z,79.98
2017-01-19T06:18:12.318Z,79.88
2017-01-19T06:19:12.317Z,80.07
2017-01-19T06:20:12.721Z,79.79
2017-01-19T06:21:12.718Z,79.79
2017-01-19T06:22:12.702Z,79.69
2017-01-19T06:23:12.298Z,80.26
2017-01-19T06:24:12.702Z,79.79
2017-01-19T06:25:12.693Z,79.79
2017-01-19T06:26:12.275Z,79.69
2017-01-19T06:27:12.834Z,80.36
2017-01-19T06:28:12.686Z,80.36
2017-01-19T06:29:12.670Z,80.36
2017-01-19T06:30:12.670Z,80.17
2017-01-19T06:31:12.666Z,80.36
2017-01-19T06:32:12.662Z,80.36
2017-01-19T06:33:12.245Z,80.83
2017-01-19T06:34:12.658Z,80.64
2017-01-19T06:35:12.650Z,80.64
2017-01-19T06:36:12.642Z,80.54
2017-01-19T06:37:12.222Z,80.45
2017-01-19T06:38:12.630Z,80.64
2017-01-19T06:39:12.646Z,80.45
2017-01-19T06:40:12.615Z,80.64
2017-01-19T06:41:12.615Z,80.83
2017-01-19T06:42:12.606Z,80.64
2017-01-19T06:43:12.610Z,80.64
2017-01-19T06:44:12.195Z,80.26
2017-01-19T06:45:12.599Z,80.45
2017-01-19T06:46:12.599Z,80.26
2017-01-19T06:47:12.582Z,80.45
2017-01-19T06:48:12.582Z,80.45
2017-01-19T06:49:12.170Z,80.54
2017-01-19T06:50:12.571Z,80.54
2017-01-19T06:51:12.159Z,80.54
2017-01-19T06:52:12.558Z,80.36
2017-01-19T06:53:12.559Z,80.54
2017-01-19T06:54:12.143Z,80.45
2017-01-19T06:55:12.543Z,80.45
2017-01-19T06:56:12.548Z,80.45
2017-01-19T06:57:12.127Z,80.64
2017-01-19T06:58:12.539Z,80.45
2017-01-19T06:59:12.535Z,80.92
2017-01-19T07:00:12.107Z,80.73
2017-01-19T07:01:12.523Z,81.02
2017-01-19T07:02:12.515Z,80.92
2017-01-19T07:03:12.515Z,81.11
2017-01-19T07:04:12.499Z,80.83
2017-01-19T07:05:12.495Z,81.11
2017-01-19T07:06:12.495Z,80.83
2017-01-19T07:07:12.491Z,81.3
2017-01-19T07:08:12.079Z,81.02
2017-01-19T07:09:12.475Z,80.92
2017-01-19T07:10:12.475Z,81.11
2017-01-19T07:11:12.471Z,81.02
2017-01-19T07:12:12.459Z,80.83
2017-01-19T07:13:12.051Z,81.02
2017-01-19T07:14:12.456Z,81.02
2017-01-19T07:15:12.444Z,80.64
2017-01-19T07:16:12.031Z,81.02
2017-01-19T07:17:12.443Z,80.83
2017-01-19T07:18:12.435Z,80.73
2017-01-19T07:19:12.431Z,81.02
2017-01-19T07:20:12.424Z,81.02
2017-01-19T07:21:12.419Z,81.49
2017-01-19T07:22:12.417Z,81.02
2017-01-19T07:23:12.407Z,81.21
2017-01-19T07:24:12.399Z,81.49
2017-01-19T07:25:11.992Z,81.02
2017-01-19T07:26:12.393Z,81.02
2017-01-19T07:27:12.543Z,80.83
2017-01-19T07:28:11.975Z,81.02
2017-01-19T07:29:12.384Z,81.02
2017-01-19T07:30:12.375Z,80.54
2017-01-19T07:31:11.956Z,80.45
2017-01-19T07:32:12.364Z,80.36
2017-01-19T07:33:12.364Z,80.64
2017-01-19T07:34:11.948Z,80.45
2017-01-19T07:35:12.356Z,80.36
2017-01-19T07:36:12.343Z,80.83
2017-01-19T07:37:12.343Z,80.73
2017-01-19T07:38:12.339Z,80.45
2017-01-19T07:39:12.335Z,80.17
2017-01-19T07:40:11.919Z,80.45
2017-01-19T07:41:12.323Z,80.73
2017-01-19T07:42:12.315Z,80.83
2017-01-19T07:43:12.309Z,80.36
2017-01-19T07:44:12.302Z,80.26
2017-01-19T07:45:12.302Z,80.36
2017-01-19T07:46:12.294Z,80.36
2017-01-19T07:47:12.294Z,80.26
2017-01-19T07:48:12.286Z,80.45
2017-01-19T07:49:11.869Z,80.26
2017-01-19T07:50:11.865Z,80.07
2017-01-19T07:51:11.861Z,80.07
2017-01-19T07:52:11.857Z,80.17
2017-01-19T07:53:12.269Z,80.26
2017-01-19T07:54:12.258Z,79.88
2017-01-19T07:55:12.253Z,79.69
2017-01-19T07:56:12.245Z,79.98
2017-01-19T07:57:12.241Z,80.17
2017-01-19T07:58:11.829Z,79.98
2017-01-19T07:59:12.232Z,80.17
2017-01-19T08:00:12.225Z,79.6
2017-01-19T08:01:11.813Z,79.88
2017-01-19T08:02:12.221Z,79.79
2017-01-19T08:03:12.209Z,79.22
2017-01-19T08:04:11.797Z,79.6
2017-01-19T08:05:12.201Z,79.22
2017-01-19T08:06:12.197Z,79.32
2017-01-19T08:07:11.785Z,79.32
2017-01-19T08:08:12.193Z,79.5
2017-01-19T08:09:11.769Z,79.32
2017-01-19T08:10:12.173Z,79.5
2017-01-19T08:11:12.173Z,78.94
2017-01-19T08:12:12.173Z,79.13
2017-01-19T08:13:12.165Z,79.22
2017-01-19T08:14:12.157Z,79.32
2017-01-19T08:15:12.153Z,79.41
2017-01-19T08:16:12.149Z,79.5
2017-01-19T08:17:11.733Z,79.22
2017-01-19T08:18:12.137Z,78.79
2017-01-19T08:19:12.125Z,79.22
2017-01-19T08:20:12.133Z,79.13
2017-01-19T08:21:12.129Z,78.89
2017-01-19T08:22:12.117Z,78.98
2017-01-19T08:23:12.117Z,78.7
2017-01-19T08:24:12.113Z,78.32
2017-01-19T08:25:12.109Z,78.47
2017-01-19T08:26:12.097Z,78.13
2017-01-19T08:27:12.093Z,78.23
2017-01-19T08:28:11.681Z,78.19
2017-01-19T08:29:11.673Z,78.28
2017-01-19T08:30:12.081Z,78.51
2017-01-19T08:31:11.661Z,78.32
2017-01-19T08:32:12.073Z,78.13
2017-01-19T08:33:12.069Z,78.32
2017-01-19T08:34:12.065Z,78.42
2017-01-19T08:35:12.061Z,78.23
2017-01-19T08:36:12.049Z,78
2017-01-19T08:37:12.041Z,77.91
2017-01-19T08:38:12.049Z,78.09
2017-01-19T08:39:12.033Z,78
2017-01-19T08:40:11.622Z,78.09
2017-01-19T08:41:11.621Z,78
2017-01-19T08:42:11.606Z,78.56
2017-01-19T08:43:12.021Z,78.13
2017-01-19T08:44:11.605Z,78.09
2017-01-19T08:45:12.013Z,78.32
2017-01-19T08:46:11.593Z,78.28
2017-01-19T08:47:11.590Z,78.28
2017-01-19T08:48:11.990Z,77.81
2017-01-19T08:49:11.994Z,77.81
2017-01-19T08:50:11.986Z,77.75
2017-01-19T08:51:11.570Z,77.66
2017-01-19T08:52:11.982Z,77.66
2017-01-19T08:53:11.558Z,77.66
2017-01-19T08:54:11.958Z,77.66
2017-01-19T08:55:11.963Z,77.47
2017-01-19T08:56:11.546Z,77.75
2017-01-19T08:57:11.954Z,77.56
2017-01-19T08:58:11.942Z,77.37
2017-01-19T08:59:11.944Z,77.56
2017-01-19T09:00:11.942Z,77.47
2017-01-19T09:01:11.938Z,76.9
2017-01-19T09:02:11.522Z,77.28
2017-01-19T09:03:11.930Z,76.53
2017-01-19T09:04:11.930Z,76.62
2017-01-19T09:05:11.911Z,76.62
2017-01-19T09:06:11.911Z,76.81
2017-01-19T09:07:11.911Z,76.9
2017-01-19T09:08:11.490Z,76.72
2017-01-19T09:09:11.494Z,76.53
2017-01-19T09:10:11.899Z,76.62
2017-01-19T09:11:11.478Z,76.06
2017-01-19T09:12:11.903Z,76.43
2017-01-19T09:13:11.875Z,76.15
2017-01-19T09:14:11.463Z,76.06
2017-01-19T09:15:11.459Z,75.78
2017-01-19T09:16:11.867Z,75.87
2017-01-19T09:17:11.859Z,75.68
2017-01-19T09:18:11.859Z,75.3
2017-01-19T09:19:11.875Z,75.11
2017-01-19T09:20:11.847Z,75.49
2017-01-19T09:21:11.839Z,75.87
2017-01-19T09:22:11.843Z,75.87
2017-01-19T09:23:11.426Z,75.87
2017-01-19T09:24:11.831Z,75.49
2017-01-19T09:25:11.418Z,75.3
2017-01-19T09:26:11.818Z,74.92
2017-01-19T09:27:11.403Z,75.11
2017-01-19T09:28:11.802Z,74.92
2017-01-19T09:29:11.810Z,74.83
2017-01-19T09:30:11.798Z,74.26
2017-01-19T09:31:11.799Z,74.26
2017-01-19T09:32:11.797Z,74.17
2017-01-19T09:33:11.378Z,74.21
2017-01-19T09:34:11.370Z,73.74
2017-01-19T09:35:11.781Z,73.26
2017-01-19T09:36:11.781Z,72.94
2017-01-19T09:37:11.781Z,73.55
2017-01-19T09:38:11.773Z,73.69
2017-01-19T09:39:11.757Z,73.41
2017-01-19T09:40:11.762Z,72.94
2017-01-19T09:41:11.349Z,73.41
2017-01-19T09:42:11.341Z,73.22
2017-01-19T09:43:11.746Z,73.32
2017-01-19T09:44:11.746Z,73.45
2017-01-19T09:45:11.737Z,73.6
2017-01-19T09:46:11.737Z,73.26
2017-01-19T09:47:11.729Z,73.55
2017-01-19T09:48:11.725Z,72.6
2017-01-19T09:49:11.718Z,72.69
2017-01-19T09:50:11.317Z,72.6
2017-01-19T09:51:11.728Z,72.6
2017-01-19T09:52:11.709Z,72.79
2017-01-19T09:53:11.701Z,72.69
2017-01-19T09:54:11.705Z,72.41
2017-01-19T09:55:11.698Z,72.32
2017-01-19T09:56:11.709Z,72.32
2017-01-19T09:57:11.690Z,72.32
2017-01-19T09:58:11.685Z,72.88
2017-01-19T09:59:11.678Z,72.6
2017-01-19T10:00:11.674Z,72.79
2017-01-19T10:01:11.666Z,72.51
2017-01-19T10:02:11.662Z,72.6
2017-01-19T10:03:11.665Z,72.6
2017-01-19T10:04:11.654Z,72.79
2017-01-19T10:05:11.242Z,72.79
2017-01-19T10:06:11.646Z,72.6
2017-01-19T10:07:11.638Z,72.03
2017-01-19T10:08:11.634Z,71.47
2017-01-19T10:09:11.226Z,71.47
2017-01-19T10:10:11.222Z,71.75
2017-01-19T10:11:11.618Z,71.66
2017-01-19T10:12:11.626Z,71.56
2017-01-19T10:13:11.622Z,71.75
2017-01-19T10:14:11.614Z,71.75
2017-01-19T10:15:11.610Z,71.94
2017-01-19T10:16:11.607Z,72.03
2017-01-19T10:17:11.187Z,72.03
2017-01-19T10:18:11.603Z,71.84
2017-01-19T10:19:11.602Z,72.22
2017-01-19T10:20:11.583Z,71.47
2017-01-19T10:21:11.591Z,71.66
2017-01-19T10:22:11.179Z,71.19
2017-01-19T10:23:11.167Z,71.19
2017-01-19T10:24:11.571Z,70.81
2017-01-19T10:25:11.571Z,70.72
2017-01-19T10:26:11.567Z,71
2017-01-19T10:27:11.155Z,71.09
2017-01-19T10:28:43.207Z,71.09
2017-01-19T10:29:11.559Z,70.53
2017-01-19T10:30:11.551Z,70.24
2017-01-19T10:31:11.159Z,69.96
2017-01-19T10:32:11.548Z,69.77
2017-01-19T10:33:11.543Z,69.58
2017-01-19T10:34:11.539Z,69.67
2017-01-19T10:35:11.116Z,69.58
2017-01-19T10:36:11.528Z,69.49
2017-01-19T10:37:11.115Z,69.49
2017-01-19T10:38:11.520Z,69.39
2017-01-19T10:39:11.512Z,70.05
2017-01-19T10:40:11.511Z,69.96
2017-01-19T10:41:11.503Z,70.05
2017-01-19T10:42:11.504Z,70.24
2017-01-19T10:43:11.647Z,70.43
2017-01-19T10:44:11.080Z,70.43
2017-01-19T10:45:11.496Z,69.96
2017-01-19T10:46:11.492Z,69.96
2017-01-19T10:47:11.488Z,69.58
2017-01-19T10:48:11.484Z,69.86
2017-01-19T10:49:11.472Z,69.33
2017-01-19T10:50:11.476Z,69.05
2017-01-19T10:51:11.057Z,69.14
2017-01-19T10:52:11.465Z,68.29
2017-01-19T10:53:11.461Z,68.29
2017-01-19T10:54:11.457Z,67.91
2017-01-19T10:55:11.449Z,67.91
2017-01-19T10:56:11.449Z,67.91
2017-01-19T10:57:11.449Z,68.1
2017-01-19T10:58:11.445Z,67.91
2017-01-19T10:59:11.446Z,67.72
2017-01-19T11:00:11.433Z,67.91
2017-01-19T11:01:11.434Z,68.01
2017-01-19T11:02:11.026Z,67.25
2017-01-19T11:03:11.430Z,67.44
2017-01-19T11:04:11.014Z,67.63
2017-01-19T11:05:11.424Z,67.54
2017-01-19T11:06:11.414Z,67.82
2017-01-19T11:07:11.002Z,67.54
2017-01-19T11:08:11.402Z,67.16
2017-01-19T11:09:10.994Z,66.97
2017-01-19T11:10:11.405Z,67.44
2017-01-19T11:11:11.390Z,67.44
2017-01-19T11:12:11.390Z,67.16
2017-01-19T11:13:10.977Z,67.5
2017-01-19T11:14:10.975Z,67.79
2017-01-19T11:15:11.383Z,67.88
2017-01-19T11:16:10.967Z,67.82
2017-01-19T11:17:11.375Z,67.72
2017-01-19T11:18:10.963Z,67.82
2017-01-19T11:19:10.959Z,67.72
2017-01-19T11:20:11.359Z,67.54
2017-01-19T11:21:11.363Z,67.6
2017-01-19T11:22:11.359Z,67.44
2017-01-19T11:23:10.940Z,67.54
2017-01-19T11:24:11.344Z,67.88
2017-01-19T11:25:11.352Z,67.88
2017-01-19T11:26:11.340Z,67.97
2017-01-19T11:27:11.336Z,67.88
2017-01-19T11:28:10.920Z,67.97
2017-01-19T11:29:11.332Z,67.91
2017-01-19T11:30:10.924Z,68.07
2017-01-19T11:31:11.320Z,67.88
2017-01-19T11:32:11.320Z,67.6
2017-01-19T11:33:11.321Z,67.79
2017-01-19T11:34:11.309Z,67.88
2017-01-19T11:35:11.309Z,67.88
2017-01-19T11:36:10.897Z,67.69
2017-01-19T11:37:11.298Z,68.01
2017-01-19T11:38:11.305Z,67.35
2017-01-19T11:39:11.293Z,67.16
2017-01-19T11:40:11.297Z,67.07
2017-01-19T11:41:11.294Z,67.07
2017-01-19T11:42:11.286Z,67.54
2017-01-19T11:43:10.870Z,67.35
2017-01-19T11:44:11.278Z,66.69
2017-01-19T11:45:11.270Z,66.78
2017-01-19T11:46:11.274Z,66.78
2017-01-19T11:47:11.259Z,66.5
2017-01-19T11:48:11.262Z,67.07
2017-01-19T11:49:10.854Z,66.88
2017-01-19T11:50:11.255Z,66.78
2017-01-19T11:51:10.871Z,66.78
2017-01-19T11:52:11.247Z,67.16
2017-01-19T11:53:11.395Z,66.78
2017-01-19T11:54:11.243Z,66.69
2017-01-19T11:55:11.239Z,67.16
2017-01-19T11:56:11.239Z,67.16
2017-01-19T11:57:11.231Z,67.16
2017-01-19T11:58:10.820Z,66.97
2017-01-19T11:59:11.224Z,67.07
2017-01-19T12:00:11.224Z,66.97
2017-01-19T12:01:11.220Z,67.16
2017-01-19T12:02:11.216Z,66.88
2017-01-19T12:03:10.804Z,66.5
2017-01-19T12:04:10.808Z,66.5
2017-01-19T12:05:11.200Z,66.5
2017-01-19T12:06:11.197Z,66.22
2017-01-19T12:07:11.201Z,66.69
2017-01-19T12:08:10.789Z,66.41
2017-01-19T12:09:11.196Z,66.41
2017-01-19T12:10:11.193Z,66.97
2017-01-19T12:11:10.773Z,66.69
2017-01-19T12:12:11.185Z,66.5
2017-01-19T12:13:11.333Z,66.69
2017-01-19T12:14:11.177Z,66.69
2017-01-19T12:15:11.177Z,66.31
2017-01-19T12:16:11.173Z,66.31
2017-01-19T12:17:11.166Z,66.31
2017-01-19T12:18:11.165Z,66.12
2017-01-19T12:19:11.162Z,66.59
2017-01-19T12:20:10.750Z,66.69
2017-01-19T12:21:11.154Z,66.69
2017-01-19T12:22:10.738Z,66.5
2017-01-19T12:23:10.738Z,66.41
2017-01-19T12:24:11.146Z,66.12
2017-01-19T12:25:11.147Z,66.31
2017-01-19T12:26:11.134Z,66.69
2017-01-19T12:27:11.135Z,66.03
2017-01-19T12:28:11.139Z,65.27
2017-01-19T12:29:11.123Z,65.36
2017-01-19T12:30:11.131Z,65.65
2017-01-19T12:31:11.127Z,65.65
2017-01-19T12:32:11.119Z,65.93
2017-01-19T12:33:11.119Z,66.12
2017-01-19T12:34:11.114Z,66.5
2017-01-19T12:35:11.118Z,66.31
2017-01-19T12:36:11.106Z,66.22
2017-01-19T12:37:10.694Z,66.5
2017-01-19T12:38:11.254Z,65.84
2017-01-19T12:39:10.686Z,65.55
2017-01-19T12:40:10.674Z,65.55
2017-01-19T12:41:10.674Z,65.65
2017-01-19T12:42:10.673Z,65.55
2017-01-19T12:43:10.673Z,65.36
2017-01-19T12:44:11.073Z,65.93
2017-01-19T12:45:11.070Z,66.41
2017-01-19T12:46:10.669Z,66.22
2017-01-19T12:47:10.661Z,66.69
2017-01-19T12:48:11.061Z,66.12
2017-01-19T12:49:11.057Z,66.22
2017-01-19T12:50:11.057Z,66.12
2017-01-19T12:51:11.065Z,66.69
2017-01-19T12:52:11.049Z,66.41
2017-01-19T12:53:11.049Z,66.12
2017-01-19T12:54:11.041Z,66.22
2017-01-19T12:55:11.045Z,66.69